Time;durP1;ratioP1;P1;durP2;ratioP2;P2;SDS_P1;SDS_P2;PMS_P1;PMS_P2;Temp;Humidity;BMP_temperature;BMP_pressure;BME280_temperature;BME280_humidity;BME280_pressure;Samples;Min_cycle;Max_cycle;Signal;HPM_P1;HPM_P2
2021/10/23 00:00:58;;;;;;;12.48;2.25;;;4.70;99.90;;;;;;5988584;23;20114;-38
2021/10/23 00:03:24;;;;;;;15.23;1.88;;;4.80;99.90;;;;;;6061028;23;20031;-38
2021/10/23 00:05:52;;;;;;;10.50;2.53;;;4.80;99.90;;;;;;6034796;23;20026;-40
2021/10/23 00:08:18;;;;;;;10.88;2.17;;;4.80;99.90;;;;;;6059898;23;20026;-38
2021/10/23 00:10:44;;;;;;;10.60;2.42;;;4.70;99.90;;;;;;6059585;23;20030;-38
2021/10/23 00:13:10;;;;;;;15.30;2.25;;;4.70;99.90;;;;;;6033579;23;20085;-38
2021/10/23 00:15:40;;;;;;;11.75;2.10;;;4.70;99.90;;;;;;6010631;23;20030;-38
2021/10/23 00:18:06;;;;;;;9.80;2.03;;;4.80;99.90;;;;;;6059342;23;20353;-39
2021/10/23 00:20:35;;;;;;;16.45;2.35;;;4.80;99.90;;;;;;6013011;23;20031;-38
2021/10/23 00:23:03;;;;;;;12.73;2.20;;;4.70;99.90;;;;;;6013576;23;20027;-37
2021/10/23 00:25:29;;;;;;;15.65;2.50;;;4.70;99.90;;;;;;6062408;23;20130;-39
2021/10/23 00:27:55;;;;;;;9.93;2.13;;;4.70;99.90;;;;;;6062742;23;20457;-42
2021/10/23 00:30:23;;;;;;;15.35;2.50;;;4.80;99.90;;;;;;6062353;23;20111;-39
2021/10/23 00:32:50;;;;;;;9.73;1.83;;;4.80;99.90;;;;;;6013112;23;20030;-41
2021/10/23 00:35:21;;;;;;;14.45;2.20;;;4.80;99.90;;;;;;6061217;23;20540;-38
2021/10/23 00:37:48;;;;;;;11.52;2.20;;;4.90;99.90;;;;;;6061817;23;20333;-38
2021/10/23 00:40:16;;;;;;;16.83;2.40;;;4.80;99.90;;;;;;5989871;23;20030;-38
2021/10/23 00:42:44;;;;;;;10.75;1.88;;;4.90;99.90;;;;;;6062564;23;20085;-39
2021/10/23 00:45:10;;;;;;;9.88;1.60;;;4.80;99.90;;;;;;6061782;23;20026;-41
2021/10/23 00:47:36;;;;;;;10.50;2.05;;;4.80;99.90;;;;;;6060923;23;20030;-38
2021/10/23 00:50:04;;;;;;;12.18;2.40;;;4.90;99.90;;;;;;6037206;23;20027;-38
2021/10/23 00:52:30;;;;;;;11.93;2.20;;;4.90;99.90;;;;;;6062828;23;20037;-37
2021/10/23 00:54:59;;;;;;;14.75;2.28;;;4.90;99.90;;;;;;6062600;23;20369;-38
2021/10/23 00:57:26;;;;;;;8.25;1.75;;;4.90;99.90;;;;;;6062099;23;20357;-38
2021/10/23 00:59:52;;;;;;;13.65;1.90;;;5.00;99.90;;;;;;6062595;23;20063;-38
2021/10/23 01:02:18;;;;;;;8.27;1.60;;;5.00;99.90;;;;;;6062640;23;20030;-38
2021/10/23 01:04:45;;;;;;;17.23;2.33;;;5.00;99.90;;;;;;6062516;23;20113;-38
2021/10/23 01:07:11;;;;;;;14.77;1.90;;;5.00;99.90;;;;;;6062464;23;20353;-39
2021/10/23 01:09:40;;;;;;;9.18;1.70;;;5.10;99.90;;;;;;6061461;23;20026;-37
2021/10/23 01:12:11;;;;;;;12.05;2.00;;;5.10;99.90;;;;;;6061207;23;20066;-38
2021/10/23 01:14:40;;;;;;;11.57;2.20;;;5.20;99.90;;;;;;6061551;23;20352;-39
2021/10/23 01:17:06;;;;;;;10.45;2.10;;;5.20;99.90;;;;;;6061107;23;20030;-40
2021/10/23 01:19:32;;;;;;;15.82;2.17;;;5.20;99.90;;;;;;6061423;23;20027;-37
2021/10/23 01:22:01;;;;;;;12.05;2.08;;;5.20;99.90;;;;;;6061609;23;20026;-37
2021/10/23 01:24:27;;;;;;;14.27;2.70;;;5.20;99.90;;;;;;6062077;23;20101;-38
2021/10/23 01:27:04;;;;;;;11.30;2.10;;;5.20;99.90;;;;;;6038114;23;20023;-38
2021/10/23 01:29:31;;;;;;;11.07;2.35;;;5.20;99.90;;;;;;6037013;23;20136;-39
2021/10/23 01:31:59;;;;;;;11.23;1.77;;;5.20;99.90;;;;;;6061902;23;20083;-38
2021/10/23 01:34:27;;;;;;;9.73;1.88;;;5.20;99.90;;;;;;5989161;23;20041;-39
2021/10/23 01:36:59;;;;;;;10.75;1.98;;;5.30;99.90;;;;;;6036665;23;20090;-39
2021/10/23 01:39:35;;;;;;;9.98;2.03;;;5.30;99.90;;;;;;5989372;23;20023;-40
2021/10/23 01:42:02;;;;;;;13.50;2.20;;;5.30;99.90;;;;;;6062076;23;20086;-41
2021/10/23 01:44:33;;;;;;;10.25;1.50;;;5.30;99.90;;;;;;6061024;23;20091;-39
2021/10/23 01:47:04;;;;;;;13.95;1.70;;;5.30;99.90;;;;;;5989223;23;20042;-39
2021/10/23 01:49:30;;;;;;;12.35;1.98;;;5.40;99.90;;;;;;5988994;23;20106;-38
2021/10/23 01:51:58;;;;;;;10.13;2.08;;;5.40;99.90;;;;;;6061385;23;20031;-38
2021/10/23 01:54:32;;;;;;;10.48;2.13;;;5.40;99.90;;;;;;6036339;23;20097;-40
2021/10/23 01:56:59;;;;;;;7.43;2.22;;;5.40;99.90;;;;;;6061779;23;20081;-38
2021/10/23 01:59:27;;;;;;;12.68;2.10;;;5.40;99.90;;;;;;6060139;23;20035;-38
2021/10/23 02:01:53;;;;;;;11.75;2.17;;;5.40;99.90;;;;;;6012007;23;20027;-41
2021/10/23 02:04:19;;;;;;;9.07;2.00;;;5.30;99.90;;;;;;6060571;23;20093;-38
2021/10/23 02:06:45;;;;;;;14.82;2.28;;;5.30;99.90;;;;;;6061005;23;20081;-39
2021/10/23 02:09:12;;;;;;;11.90;2.05;;;5.20;99.90;;;;;;6061887;23;20062;-38
2021/10/23 02:11:41;;;;;;;11.15;1.83;;;5.20;99.90;;;;;;6061723;23;20094;-39
2021/10/23 02:14:08;;;;;;;12.05;1.88;;;5.30;99.90;;;;;;6061616;23;20031;-38
2021/10/23 02:16:35;;;;;;;8.60;1.60;;;5.30;99.90;;;;;;6011289;23;20034;-39
2021/10/23 02:19:02;;;;;;;10.10;2.70;;;5.30;99.90;;;;;;6035524;23;20031;-38
2021/10/23 02:21:33;;;;;;;10.18;1.63;;;5.30;99.90;;;;;;6062426;23;20030;-38
2021/10/23 02:23:59;;;;;;;8.50;1.70;;;5.40;99.90;;;;;;6062015;23;20640;-38
2021/10/23 02:26:31;;;;;;;9.18;1.70;;;5.40;99.90;;;;;;6061607;23;20025;-38
2021/10/23 02:28:57;;;;;;;8.93;1.90;;;5.40;99.90;;;;;;6060957;23;20038;-39
2021/10/23 02:31:24;;;;;;;11.05;2.10;;;5.40;99.90;;;;;;6061074;23;20745;-38
2021/10/23 02:33:51;;;;;;;8.63;2.00;;;5.40;99.90;;;;;;6061715;23;20058;-40
2021/10/23 02:36:18;;;;;;;5.97;1.70;;;5.40;99.90;;;;;;6011484;23;20030;-38
2021/10/23 02:38:45;;;;;;;10.50;1.88;;;5.50;99.90;;;;;;6061658;23;20385;-38
2021/10/23 02:41:13;;;;;;;13.38;2.05;;;5.50;99.90;;;;;;6060412;23;20027;-40
2021/10/23 02:43:43;;;;;;;12.73;2.20;;;5.50;99.90;;;;;;6061298;23;20499;-39
2021/10/23 02:46:09;;;;;;;12.48;1.90;;;5.50;99.90;;;;;;6062399;23;20029;-38
2021/10/23 02:48:36;;;;;;;8.57;1.50;;;5.40;99.90;;;;;;6061136;23;20084;-38
2021/10/23 02:51:04;;;;;;;11.50;2.10;;;5.40;99.90;;;;;;6060767;23;20105;-38
2021/10/23 02:53:31;;;;;;;19.10;2.22;;;5.30;99.90;;;;;;6060826;23;20566;-39
2021/10/23 02:55:57;;;;;;;8.60;1.70;;;5.30;99.90;;;;;;6061657;23;20468;-37
2021/10/23 02:58:24;;;;;;;5.35;1.80;;;5.30;99.90;;;;;;6061408;23;20023;-37
2021/10/23 03:00:50;;;;;;;10.15;2.03;;;5.30;99.90;;;;;;6061414;23;20114;-39
2021/10/23 03:03:17;;;;;;;11.13;1.90;;;5.40;99.90;;;;;;6061573;23;20034;-38
2021/10/23 03:05:46;;;;;;;10.30;2.13;;;5.40;99.90;;;;;;6036019;23;20027;-39
2021/10/23 03:08:14;;;;;;;11.98;1.95;;;5.40;99.90;;;;;;6061056;23;20105;-38
2021/10/23 03:10:40;;;;;;;11.48;2.38;;;5.40;99.90;;;;;;6060922;23;20042;-38
2021/10/23 03:13:06;;;;;;;11.02;2.17;;;5.30;99.90;;;;;;6061460;23;20034;-38
2021/10/23 03:15:32;;;;;;;8.20;2.20;;;5.30;99.90;;;;;;6011298;23;20059;-38
2021/10/23 03:17:58;;;;;;;10.73;2.38;;;5.30;99.90;;;;;;6061273;23;20031;-38
2021/10/23 03:20:25;;;;;;;8.13;1.63;;;5.40;99.90;;;;;;6060479;23;20035;-40
2021/10/23 03:22:52;;;;;;;10.82;2.00;;;5.20;99.90;;;;;;6061678;23;20034;-42
2021/10/23 03:25:18;;;;;;;9.13;1.90;;;5.20;99.90;;;;;;6012068;23;20023;-38
2021/10/23 03:27:46;;;;;;;7.95;1.63;;;5.20;99.90;;;;;;6061792;23;20044;-37
2021/10/23 03:30:12;;;;;;;7.93;1.58;;;5.10;99.90;;;;;;6060580;23;20094;-37
2021/10/23 03:32:38;;;;;;;11.88;2.17;;;5.10;99.90;;;;;;6060766;23;20363;-40
2021/10/23 03:35:06;;;;;;;10.02;1.85;;;5.00;99.90;;;;;;6061894;23;20034;-37
2021/10/23 03:37:34;;;;;;;13.90;2.10;;;5.00;99.90;;;;;;6011943;23;20030;-37
2021/10/23 03:40:05;;;;;;;9.40;2.38;;;5.10;99.90;;;;;;5985880;23;20027;-40
2021/10/23 03:42:31;;;;;;;10.93;1.73;;;5.00;99.90;;;;;;6060002;23;20118;-38
2021/10/23 03:44:57;;;;;;;9.02;2.00;;;4.90;99.90;;;;;;6060712;23;20041;-38
2021/10/23 03:47:26;;;;;;;10.65;2.15;;;4.90;99.90;;;;;;6035149;23;20023;-38
2021/10/23 03:49:55;;;;;;;12.27;2.03;;;5.00;99.90;;;;;;6061170;23;20034;-37
2021/10/23 03:52:21;;;;;;;11.50;2.38;;;5.00;99.90;;;;;;6060863;23;20030;-38
2021/10/23 03:54:47;;;;;;;11.30;2.33;;;5.10;99.90;;;;;;6060954;23;20106;-38
2021/10/23 03:57:13;;;;;;;10.50;2.13;;;5.10;99.90;;;;;;5987211;23;20034;-39
2021/10/23 03:59:39;;;;;;;13.27;2.42;;;5.20;99.90;;;;;;6060649;23;20041;-41
2021/10/23 04:02:09;;;;;;;13.57;3.00;;;5.30;99.90;;;;;;6060288;23;20022;-38
2021/10/23 04:04:35;;;;;;;9.90;2.22;;;5.30;99.90;;;;;;6061801;23;20035;-38
2021/10/23 04:07:03;;;;;;;7.95;2.03;;;5.30;99.90;;;;;;6035174;23;20512;-37
2021/10/23 04:09:32;;;;;;;8.70;1.98;;;5.30;99.90;;;;;;6061513;23;20029;-38
2021/10/23 04:12:01;;;;;;;10.68;1.70;;;5.20;99.90;;;;;;6011634;23;20101;-41
2021/10/23 04:14:29;;;;;;;13.32;2.25;;;5.20;99.90;;;;;;6036261;23;20058;-37
2021/10/23 04:16:56;;;;;;;9.18;2.55;;;5.20;99.90;;;;;;6012216;23;20026;-40
2021/10/23 04:19:22;;;;;;;13.05;1.70;;;5.20;99.90;;;;;;6061480;23;20027;-37
2021/10/23 04:21:50;;;;;;;9.20;2.40;;;5.10;99.90;;;;;;6060834;23;20026;-37
2021/10/23 04:24:20;;;;;;;12.27;2.25;;;5.30;99.90;;;;;;6035388;23;20034;-38
2021/10/23 04:26:46;;;;;;;13.90;2.95;;;5.20;99.90;;;;;;6061086;23;20102;-40
2021/10/23 04:29:14;;;;;;;7.95;2.00;;;5.30;99.90;;;;;;6060752;23;20043;-38
2021/10/23 04:31:40;;;;;;;8.60;1.70;;;5.30;99.90;;;;;;6060291;23;20709;-39
2021/10/23 04:34:06;;;;;;;9.23;2.50;;;5.30;99.90;;;;;;6060961;23;20038;-37
2021/10/23 04:36:33;;;;;;;9.95;2.08;;;5.30;99.90;;;;;;6060314;23;21067;-39
2021/10/23 04:38:59;;;;;;;15.02;2.67;;;5.40;99.90;;;;;;6061122;23;20037;-37
2021/10/23 04:41:25;;;;;;;11.38;2.28;;;5.40;99.90;;;;;;6060221;23;20532;-37
2021/10/23 04:43:51;;;;;;;9.68;2.17;;;5.30;99.90;;;;;;6060636;23;20464;-41
2021/10/23 04:46:18;;;;;;;7.57;1.98;;;5.30;99.90;;;;;;6035201;23;20491;-38
2021/10/23 04:48:47;;;;;;;10.98;1.98;;;5.20;99.90;;;;;;6060889;23;20042;-38
2021/10/23 04:51:18;;;;;;;15.15;2.83;;;5.20;99.90;;;;;;6060391;23;20462;-37
2021/10/23 04:53:44;;;;;;;9.65;2.13;;;5.20;99.90;;;;;;6059969;23;20413;-37
2021/10/23 04:56:10;;;;;;;10.98;2.13;;;5.20;99.90;;;;;;6060704;23;20062;-38
2021/10/23 04:58:39;;;;;;;10.93;2.25;;;5.10;99.90;;;;;;6062977;23;20109;-37
2021/10/23 05:01:08;;;;;;;16.20;2.75;;;5.10;99.90;;;;;;6059893;23;20113;-38
2021/10/23 05:03:34;;;;;;;10.55;2.28;;;5.00;99.90;;;;;;5989676;23;20334;-37
2021/10/23 05:06:00;;;;;;;8.30;1.92;;;5.00;99.90;;;;;;6061064;23;20030;-39
2021/10/23 05:08:26;;;;;;;13.65;2.40;;;5.00;99.90;;;;;;6062025;23;20031;-38
2021/10/23 05:10:52;;;;;;;12.50;3.17;;;5.00;99.90;;;;;;6061467;23;20487;-38
2021/10/23 05:13:21;;;;;;;13.90;2.53;;;5.00;99.90;;;;;;6061140;23;20073;-39
2021/10/23 05:15:50;;;;;;;16.70;3.55;;;5.00;99.90;;;;;;6062238;23;20110;-39
2021/10/23 05:18:16;;;;;;;12.38;2.92;;;5.00;99.90;;;;;;6061554;23;20030;-38
2021/10/23 05:20:42;;;;;;;14.68;3.20;;;5.00;99.90;;;;;;6061960;23;20030;-39
2021/10/23 05:23:10;;;;;;;14.13;3.55;;;4.90;99.90;;;;;;6061438;23;20510;-38
2021/10/23 05:25:36;;;;;;;13.88;3.70;;;4.90;99.90;;;;;;6061774;23;20030;-40
2021/10/23 05:28:03;;;;;;;10.98;2.75;;;4.90;99.90;;;;;;6062143;23;20063;-37
2021/10/23 05:30:29;;;;;;;16.50;3.35;;;4.90;99.90;;;;;;6061193;23;20034;-37
2021/10/23 05:32:55;;;;;;;12.02;3.20;;;4.80;99.90;;;;;;6061196;23;20034;-38
2021/10/23 05:35:21;;;;;;;11.00;2.90;;;4.70;99.90;;;;;;6062411;23;20026;-38
2021/10/23 05:37:49;;;;;;;13.68;3.40;;;4.70;99.90;;;;;;6062018;23;20342;-37
2021/10/23 05:40:15;;;;;;;15.80;3.47;;;4.60;99.90;;;;;;6062808;23;20041;-38
2021/10/23 05:42:42;;;;;;;12.88;2.80;;;4.60;99.90;;;;;;6061704;23;20026;-37
2021/10/23 05:45:08;;;;;;;12.55;3.10;;;4.50;99.90;;;;;;6062525;23;20436;-37
2021/10/23 05:47:37;;;;;;;14.75;3.55;;;4.50;99.90;;;;;;6062693;23;20122;-38
2021/10/23 05:50:04;;;;;;;18.65;3.60;;;4.40;99.90;;;;;;6061766;23;20090;-39
2021/10/23 05:52:31;;;;;;;10.45;2.90;;;4.30;99.90;;;;;;6035471;23;20294;-40
2021/10/23 05:54:58;;;;;;;12.57;3.55;;;4.40;99.90;;;;;;5965554;23;20027;-38
2021/10/23 05:57:25;;;;;;;10.23;2.90;;;4.30;99.90;;;;;;6060561;23;20468;-40
2021/10/23 05:59:54;;;;;;;9.45;3.10;;;4.20;99.90;;;;;;6061311;23;20030;-38
2021/10/23 06:02:25;;;;;;;13.80;3.92;;;4.20;99.90;;;;;;6066017;23;20038;-39
2021/10/23 06:04:56;;;;;;;15.93;4.13;;;4.10;99.90;;;;;;6090181;23;20336;-40
2021/10/23 06:07:25;;;;;;;23.02;4.80;;;4.10;99.90;;;;;;6092261;23;20026;-40
2021/10/23 06:09:52;;;;;;;17.02;4.95;;;4.20;99.90;;;;;;6090640;23;20086;-37
2021/10/23 06:12:19;;;;;;;18.20;4.85;;;4.20;99.90;;;;;;6092155;23;20084;-37
2021/10/23 06:14:45;;;;;;;18.35;4.80;;;4.30;99.90;;;;;;6091855;23;20030;-37
2021/10/23 06:17:11;;;;;;;14.90;4.90;;;4.30;99.90;;;;;;6089938;23;20037;-37
2021/10/23 06:19:40;;;;;;;18.08;5.18;;;4.40;99.90;;;;;;6092320;23;20026;-38
2021/10/23 06:22:07;;;;;;;14.48;4.90;;;4.40;99.90;;;;;;6092203;23;20061;-38
2021/10/23 06:24:35;;;;;;;21.25;5.70;;;4.50;99.90;;;;;;6092026;23;20081;-38
2021/10/23 06:27:01;;;;;;;18.88;5.97;;;4.60;99.90;;;;;;6091708;23;20030;-39
2021/10/23 06:29:28;;;;;;;12.35;6.25;;;4.70;99.90;;;;;;6041715;23;20065;-38
2021/10/23 06:31:54;;;;;;;18.20;5.95;;;4.80;99.90;;;;;;6091928;23;20089;-38
2021/10/23 06:34:24;;;;;;;21.38;6.20;;;4.90;99.90;;;;;;6091418;23;20113;-38
2021/10/23 06:36:50;;;;;;;23.92;6.75;;;4.90;99.90;;;;;;6091662;23;20368;-37
2021/10/23 06:39:16;;;;;;;23.45;5.65;;;5.00;99.90;;;;;;6091333;23;20026;-37
2021/10/23 06:41:43;;;;;;;23.50;6.10;;;5.20;99.90;;;;;;6092312;23;20026;-38
2021/10/23 06:44:09;;;;;;;17.98;5.85;;;5.20;99.90;;;;;;6114447;23;20034;-38
2021/10/23 06:46:36;;;;;;;15.43;5.10;;;5.30;99.90;;;;;;6090694;23;20033;-37
2021/10/23 06:49:04;;;;;;;21.33;5.63;;;5.40;99.90;;;;;;6091270;23;20030;-37
2021/10/23 06:51:30;;;;;;;17.88;5.63;;;5.50;99.90;;;;;;6091141;23;20030;-38
2021/10/23 06:53:59;;;;;;;16.40;5.05;;;5.50;99.90;;;;;;6091531;23;20108;-38
2021/10/23 06:56:28;;;;;;;13.18;5.05;;;5.60;99.90;;;;;;6091818;23;20515;-38
2021/10/23 06:58:54;;;;;;;20.83;5.80;;;5.70;99.90;;;;;;6088686;23;20027;-38
2021/10/23 07:01:21;;;;;;;22.00;5.10;;;5.70;99.90;;;;;;6061868;23;20773;-39
2021/10/23 07:03:48;;;;;;;20.80;6.30;;;5.80;99.90;;;;;;6061410;23;20069;-38
2021/10/23 07:06:17;;;;;;;21.50;6.68;;;5.90;99.90;;;;;;6036673;23;20078;-38
2021/10/23 07:08:43;;;;;;;19.92;5.85;;;5.90;99.90;;;;;;6062989;23;20030;-37
2021/10/23 07:11:09;;;;;;;18.42;5.55;;;5.90;99.90;;;;;;6037180;23;20455;-38
2021/10/23 07:13:36;;;;;;;17.00;5.47;;;6.00;99.90;;;;;;6062184;23;20035;-39
2021/10/23 07:16:02;;;;;;;19.08;5.00;;;6.00;99.90;;;;;;6062391;23;20516;-39
2021/10/23 07:18:29;;;;;;;12.32;4.53;;;6.10;99.90;;;;;;6062419;23;20030;-38
2021/10/23 07:20:55;;;;;;;19.73;5.30;;;6.10;99.90;;;;;;6062426;23;20035;-38
2021/10/23 07:23:21;;;;;;;18.45;5.43;;;6.10;99.90;;;;;;6061824;23;20476;-38
2021/10/23 07:25:47;;;;;;;14.25;5.20;;;6.20;99.90;;;;;;6062804;23;20034;-39
2021/10/23 07:28:16;;;;;;;13.30;4.35;;;6.30;99.90;;;;;;6061997;23;20027;-39
2021/10/23 07:30:42;;;;;;;16.70;5.80;;;6.30;99.90;;;;;;6062325;23;20102;-38
2021/10/23 07:33:08;;;;;;;15.55;5.55;;;6.40;99.90;;;;;;6062763;23;20042;-38
2021/10/23 07:35:34;;;;;;;16.25;4.55;;;6.50;99.90;;;;;;6036774;23;20031;-39
2021/10/23 07:38:03;;;;;;;11.98;4.32;;;6.50;99.90;;;;;;6061748;23;20468;-38
2021/10/23 07:40:29;;;;;;;17.27;5.10;;;6.70;99.90;;;;;;6061501;23;20162;-40
2021/10/23 07:42:56;;;;;;;17.63;5.40;;;6.70;99.90;;;;;;6062062;23;20027;-40
2021/10/23 07:45:22;;;;;;;17.23;4.93;;;6.70;99.90;;;;;;6061643;23;20027;-39
2021/10/23 07:47:48;;;;;;;12.45;4.70;;;6.70;99.90;;;;;;6062198;23;20045;-41
2021/10/23 07:50:17;;;;;;;12.55;4.00;;;6.80;99.90;;;;;;6037233;23;20106;-39
2021/10/23 07:52:45;;;;;;;11.02;4.28;;;6.80;99.90;;;;;;6036397;23;20364;-40
2021/10/23 07:55:11;;;;;;;12.50;4.22;;;6.80;99.90;;;;;;6062170;23;20109;-41
2021/10/23 07:57:41;;;;;;;16.33;4.80;;;6.90;99.90;;;;;;6061716;23;20086;-38
2021/10/23 08:00:10;;;;;;;10.60;3.90;;;6.90;99.90;;;;;;6066363;23;20027;-38
2021/10/23 08:02:53;;;;;;;12.23;3.92;;;6.90;99.90;;;;;;6091161;23;20452;-39
2021/10/23 08:05:23;;;;;;;17.38;4.43;;;7.00;99.90;;;;;;6090857;23;20081;-39
2021/10/23 08:07:52;;;;;;;10.68;3.80;;;7.20;99.90;;;;;;6090895;23;20117;-40
2021/10/23 08:10:24;;;;;;;17.65;4.40;;;7.80;99.90;;;;;;6064562;23;20029;-40
2021/10/23 08:12:58;;;;;;;14.90;4.00;;;8.60;99.90;;;;;;6090967;23;20068;-40
2021/10/23 08:15:26;;;;;;;12.98;3.63;;;9.20;99.90;;;;;;6090852;23;20023;-39
2021/10/23 08:17:56;;;;;;;140.77;117.85;;;9.90;99.90;;;;;;6090774;23;20030;-39
2021/10/23 08:20:23;;;;;;;13.10;4.28;;;10.50;99.90;;;;;;6091477;23;20080;-39
2021/10/23 08:22:52;;;;;;;13.05;3.58;;;11.10;99.90;;;;;;6090901;23;20412;-40
2021/10/23 08:25:19;;;;;;;14.75;3.10;;;11.60;99.90;;;;;;6091060;23;20045;-39
2021/10/23 08:27:50;;;;;;;11.80;2.35;;;12.00;99.90;;;;;;6091961;23;20031;-41
2021/10/23 08:30:18;;;;;;;10.60;2.95;;;12.40;99.90;;;;;;6089029;23;20030;-40
2021/10/23 08:32:46;;;;;;;11.05;2.95;;;12.60;99.90;;;;;;6091837;23;20325;-41
2021/10/23 08:35:14;;;;;;;11.10;2.90;;;12.70;99.90;;;;;;6089233;23;20026;-39
2021/10/23 08:37:45;;;;;;;10.88;3.22;;;12.90;99.90;;;;;;6091364;23;20050;-39
2021/10/23 08:40:13;;;;;;;11.02;2.90;;;13.10;99.90;;;;;;6089402;23;20027;-40
2021/10/23 08:42:40;;;;;;;5.53;2.38;;;13.20;99.90;;;;;;6092996;23;20030;-40
2021/10/23 08:45:10;;;;;;;8.70;2.40;;;13.30;99.90;;;;;;6091829;23;20026;-39
2021/10/23 08:47:37;;;;;;;8.73;2.50;;;13.50;99.90;;;;;;6092138;23;20030;-39
2021/10/23 08:50:12;;;;;;;10.73;2.72;;;13.70;99.90;;;;;;6092788;23;20030;-36
2021/10/23 08:52:40;;;;;;;6.15;1.98;;;13.80;99.90;;;;;;6092312;23;20030;-39
2021/10/23 08:55:07;;;;;;;7.35;2.35;;;13.70;99.90;;;;;;6090607;23;20026;-38
2021/10/23 08:57:34;;;;;;;6.65;1.90;;;13.60;99.90;;;;;;6089980;23;20023;-36
2021/10/23 09:00:00;;;;;;;8.98;2.20;;;13.70;99.90;;;;;;6090349;23;20037;-39
2021/10/23 09:02:26;;;;;;;11.18;2.40;;;13.70;99.90;;;;;;6092362;23;20117;-40
2021/10/23 09:04:56;;;;;;;6.70;2.08;;;13.40;99.90;;;;;;6092030;23;20144;-37
2021/10/23 09:07:23;;;;;;;8.30;2.30;;;13.60;99.90;;;;;;6091102;23;20022;-38
2021/10/23 09:10:02;;;;;;;6.72;1.73;;;13.60;99.90;;;;;;6092671;23;20026;-37
2021/10/23 09:12:34;;;;;;;9.23;2.22;;;13.50;99.90;;;;;;6065616;23;20022;-40
2021/10/23 09:15:03;;;;;;;6.57;1.98;;;13.30;99.90;;;;;;6092300;23;20109;-38
2021/10/23 09:17:30;;;;;;;10.50;2.50;;;13.00;99.90;;;;;;6092886;23;20030;-38
2021/10/23 09:20:03;;;;;;;8.52;2.40;;;12.70;99.90;;;;;;6092326;23;20022;-37
2021/10/23 09:22:42;;;;;;;9.20;1.95;;;12.60;99.90;;;;;;6090632;23;20039;-39
2021/10/23 09:25:14;;;;;;;11.45;2.65;;;12.60;99.90;;;;;;6092395;23;20026;-38
2021/10/23 09:27:58;;;;;;;8.45;2.42;;;12.40;99.90;;;;;;6091574;23;20030;-38
2021/10/23 09:30:45;;;;;;;9.25;2.47;;;12.30;99.90;;;;;;6092041;23;20105;-38
2021/10/23 09:33:20;;;;;;;9.43;2.70;;;12.20;99.90;;;;;;6091918;23;20105;-37
2021/10/23 09:35:55;;;;;;;7.90;2.10;;;12.10;99.90;;;;;;6092316;23;20080;-38
2021/10/23 09:38:24;;;;;;;8.60;2.15;;;12.00;99.90;;;;;;6091157;23;20026;-38
2021/10/23 09:40:55;;;;;;;8.95;2.35;;;12.00;99.90;;;;;;6093172;23;20093;-38
2021/10/23 09:43:32;;;;;;;8.98;2.30;;;11.80;99.90;;;;;;6092921;23;20479;-38
2021/10/23 09:45:59;;;;;;;8.30;2.70;;;11.80;99.90;;;;;;6042288;23;20030;-38
2021/10/23 09:48:32;;;;;;;10.10;3.17;;;11.90;99.90;;;;;;6092110;23;20034;-38
2021/10/23 09:51:16;;;;;;;11.93;2.67;;;11.90;99.90;;;;;;6092072;23;20037;-39
2021/10/23 09:53:48;;;;;;;10.18;2.65;;;12.00;99.90;;;;;;6090389;23;20061;-37
2021/10/23 09:56:22;;;;;;;10.57;3.45;;;12.00;99.90;;;;;;6067445;23;20022;-39
2021/10/23 09:58:58;;;;;;;9.10;3.60;;;11.90;99.90;;;;;;6091847;23;20038;-40
2021/10/23 10:01:28;;;;;;;13.07;4.22;;;12.00;99.90;;;;;;6091614;23;20086;-41
2021/10/23 10:04:05;;;;;;;10.95;4.55;;;12.10;99.90;;;;;;6089911;23;20034;-40
2021/10/23 10:06:38;;;;;;;8.75;3.90;;;12.00;99.90;;;;;;6090912;23;20033;-39
2021/10/23 10:09:06;;;;;;;10.55;4.50;;;12.00;99.90;;;;;;6090831;23;20196;-40
2021/10/23 10:11:33;;;;;;;10.75;4.32;;;12.10;99.90;;;;;;6086951;23;20356;-42
2021/10/23 10:14:00;;;;;;;10.50;4.15;;;12.20;99.90;;;;;;6091051;23;20518;-39
2021/10/23 10:16:32;;;;;;;;;;;12.10;99.90;;;;;;6089682;23;20109;-40
2021/10/23 10:18:58;;;;;;;9.23;3.75;;;12.00;99.90;;;;;;6091177;23;19921;-41
2021/10/23 10:21:34;;;;;;;11.40;3.65;;;12.10;99.90;;;;;;6090663;23;20026;-39
2021/10/23 10:24:00;;;;;;;14.52;4.05;;;12.10;99.90;;;;;;6089256;23;20057;-42
2021/10/23 10:26:28;;;;;;;13.00;5.00;;;12.00;99.90;;;;;;6090781;23;20456;-39
2021/10/23 10:29:10;;;;;;;11.13;4.45;;;11.90;99.90;;;;;;6089422;23;20029;-41
2021/10/23 10:31:53;;;;;;;15.52;4.00;;;11.90;99.90;;;;;;6091382;23;20572;-40
2021/10/23 10:43:17;;;;;;;8.65;2.90;;;11.80;99.90;;;;;;5945421;24;20032;-44
2021/10/23 10:45:46;;;;;;;8.63;2.60;;;11.80;99.90;;;;;;5945270;24;20028;-42
2021/10/23 10:48:22;;;;;;;12.27;2.58;;;11.90;99.90;;;;;;5969239;24;20032;-39
2021/10/23 10:50:53;;;;;;;10.15;3.63;;;11.80;99.90;;;;;;5946015;24;20093;-37
2021/10/23 10:53:29;;;;;;;7.55;2.60;;;11.90;99.90;;;;;;5968422;24;20032;-38
2021/10/23 10:56:09;;;;;;;8.80;2.78;;;12.00;99.90;;;;;;5945738;24;20032;-40
2021/10/23 10:58:56;;;;;;;9.88;2.65;;;12.00;99.90;;;;;;5945563;24;20029;-36
2021/10/23 11:01:34;;;;;;;8.73;2.70;;;11.90;99.90;;;;;;5945276;24;20036;-38
2021/10/23 11:04:05;;;;;;;8.63;2.20;;;11.90;99.90;;;;;;5944726;24;20033;-39
2021/10/23 11:06:31;;;;;;;10.10;3.63;;;11.90;99.90;;;;;;5944986;24;20522;-40
2021/10/23 11:09:12;;;;;;;11.88;3.22;;;11.90;99.90;;;;;;5945919;24;20606;-39
2021/10/23 11:11:45;;;;;;;6.72;2.20;;;11.90;99.90;;;;;;5945647;24;20096;-40
2021/10/23 11:14:35;;;;;;;7.88;2.47;;;12.00;99.90;;;;;;6023830;23;20653;-40
2021/10/23 11:17:02;;;;;;;7.28;2.38;;;12.10;99.90;;;;;;6089972;23;20026;-40
2021/10/23 11:19:40;;;;;;;7.80;2.55;;;12.20;99.90;;;;;;6090171;23;20030;-38
2021/10/23 11:22:17;;;;;;;10.63;2.88;;;12.30;99.90;;;;;;6090150;23;20034;-39
2021/10/23 11:25:05;;;;;;;8.35;3.05;;;12.30;99.90;;;;;;6090301;23;20352;-38
2021/10/23 11:27:42;;;;;;;10.18;2.28;;;12.50;99.90;;;;;;6090494;23;20042;-43
2021/10/23 11:30:11;;;;;;;6.25;1.70;;;13.00;99.90;;;;;;6090825;23;20452;-39
2021/10/23 11:33:02;;;;;;;10.10;2.10;;;13.70;99.90;;;;;;6090795;23;20022;-40
2021/10/23 11:35:28;;;;;;;7.20;1.90;;;14.30;99.90;;;;;;6090278;23;20475;-40
2021/10/23 11:37:55;;;;;;;9.10;1.70;;;14.60;99.90;;;;;;6089723;23;20026;-39
2021/10/23 11:40:21;;;;;;;6.25;2.00;;;14.70;99.90;;;;;;6090906;23;20058;-40
2021/10/23 11:42:50;;;;;;;8.02;2.53;;;14.60;99.90;;;;;;6090400;23;20084;-40
2021/10/23 11:45:28;;;;;;;5.28;1.98;;;14.20;99.90;;;;;;6090271;23;20026;-43
2021/10/23 11:48:02;;;;;;;9.15;2.13;;;13.80;99.90;;;;;;6090089;23;20069;-41
2021/10/23 11:50:31;;;;;;;10.88;2.50;;;13.60;99.90;;;;;;6090874;23;20109;-39
2021/10/23 11:53:29;;;;;;;12.23;2.22;;;13.50;99.90;;;;;;6090518;23;20026;-41
2021/10/23 11:56:00;;;;;;;7.43;1.70;;;13.50;99.90;;;;;;6089889;23;20032;-39
2021/10/23 11:58:28;;;;;;;6.85;1.63;;;13.40;99.90;;;;;;6090349;23;20121;-39
2021/10/23 12:01:21;;;;;;;7.35;1.70;;;13.50;99.90;;;;;;6069458;23;20078;-38
2021/10/23 12:03:50;;;;;;;6.95;1.73;;;13.60;99.90;;;;;;6036452;23;20034;-39
2021/10/23 12:06:27;;;;;;;7.38;2.20;;;13.70;99.90;;;;;;6061241;23;20781;-39
2021/10/23 12:09:14;;;;;;;7.97;2.25;;;13.70;99.90;;;;;;6061463;23;20117;-41
2021/10/23 12:11:40;;;;;;;9.50;1.80;;;13.50;99.90;;;;;;6061378;23;20102;-40
2021/10/23 12:14:08;;;;;;;7.65;1.40;;;13.40;99.90;;;;;;6061364;23;20109;-38
2021/10/23 12:16:47;;;;;;;8.35;1.70;;;13.30;99.90;;;;;;6037275;23;20038;-39
2021/10/23 12:19:16;;;;;;;7.63;2.35;;;13.10;99.90;;;;;;6063548;23;20085;-39
2021/10/23 12:22:06;;;;;;;9.88;1.58;;;13.00;99.90;;;;;;6063199;23;20105;-44
2021/10/23 12:24:45;;;;;;;8.23;1.95;;;13.10;99.90;;;;;;6020648;23;20472;-43
2021/10/23 12:27:25;;;;;;;7.93;1.52;;;13.20;99.90;;;;;;6062781;23;20112;-42
2021/10/23 12:30:00;;;;;;;7.90;1.70;;;13.20;99.90;;;;;;6062960;23;20034;-41
2021/10/23 12:32:38;;;;;;;10.07;1.73;;;13.30;99.90;;;;;;6062374;23;20034;-39
2021/10/23 12:35:11;;;;;;;7.88;1.75;;;13.30;99.90;;;;;;6063035;23;20035;-40
2021/10/23 12:37:46;;;;;;;8.70;2.28;;;13.30;99.90;;;;;;6014056;23;20344;-39
2021/10/23 12:40:30;;;;;;;8.90;2.03;;;13.20;99.90;;;;;;6036047;23;20028;-41
2021/10/23 12:43:17;;;;;;;6.22;1.30;;;13.20;99.90;;;;;;6063028;23;20090;-40
2021/10/23 12:45:46;;;;;;;8.35;2.05;;;13.00;99.90;;;;;;6062512;23;20551;-41
2021/10/23 12:48:15;;;;;;;5.13;1.58;;;12.90;99.90;;;;;;6062524;23;20419;-42
2021/10/23 12:50:43;;;;;;;6.40;1.50;;;12.90;99.90;;;;;;6037761;23;20158;-39
2021/10/23 12:53:12;;;;;;;7.47;1.70;;;12.90;99.90;;;;;;6037307;23;20026;-43
2021/10/23 12:55:41;;;;;;;7.25;1.73;;;13.00;99.90;;;;;;6063831;23;20465;-40
2021/10/23 12:58:09;;;;;;;9.18;1.83;;;13.10;99.90;;;;;;6062698;23;20082;-40
2021/10/23 13:00:39;;;;;;;6.55;1.60;;;13.30;99.90;;;;;;6063245;23;20459;-41
2021/10/23 13:03:06;;;;;;;8.93;1.67;;;13.40;99.90;;;;;;6038114;23;20041;-40
2021/10/23 13:05:32;;;;;;;6.43;1.55;;;13.50;99.90;;;;;;6063119;23;20385;-40
2021/10/23 13:07:58;;;;;;;10.13;1.52;;;13.40;99.90;;;;;;6063551;23;20026;-38